createdAt,value
2023-04-19T00:01:08.471Z,91.29
2023-04-19T00:03:12.982Z,92.04
2023-04-19T00:05:18.967Z,92.79
2023-04-19T00:07:24.746Z,92.45
2023-04-19T00:09:28.715Z,92.92
2023-04-19T00:11:32.873Z,93.34
2023-04-19T00:13:37.127Z,94.06
2023-04-19T00:15:41.273Z,93.62
2023-04-19T00:17:45.816Z,94.51
2023-04-19T00:19:50.190Z,94.79
2023-04-19T00:21:54.354Z,94.75
2023-04-19T00:23:59.941Z,95.45
2023-04-19T00:26:05.183Z,95.08
2023-04-19T00:28:09.201Z,94.90
2023-04-19T00:30:14.528Z,94.67
2023-04-19T00:32:18.834Z,94.38
2023-04-19T00:34:22.851Z,94.44
2023-04-19T00:36:27.521Z,94.85
2023-04-19T00:38:32.019Z,94.40
2023-04-19T00:40:38.232Z,94.30
2023-04-19T00:42:42.724Z,93.73
2023-04-19T00:44:48.868Z,94.19
2023-04-19T00:46:53.426Z,93.40
2023-04-19T00:48:57.820Z,92.96
2023-04-19T00:51:02.171Z,92.98
2023-04-19T00:53:06.633Z,92.68
2023-04-19T00:55:11.457Z,92.16
2023-04-19T00:57:18.282Z,92.01
2023-04-19T00:59:23.119Z,91.88
2023-04-19T01:01:27.553Z,91.85
2023-04-19T01:03:32.073Z,92.29
2023-04-19T01:05:36.388Z,92.09
2023-04-19T01:07:40.575Z,91.34
2023-04-19T01:09:46.034Z,91.76
2023-04-19T01:11:50.174Z,90.94
2023-04-19T01:13:58.642Z,90.96
2023-04-19T01:16:03.291Z,89.89
2023-04-19T01:18:07.931Z,89.64
2023-04-19T01:20:13.827Z,90.07
2023-04-19T01:22:21.879Z,89.96
2023-04-19T01:24:25.872Z,89.72
2023-04-19T01:26:29.754Z,90.09
2023-04-19T01:28:34.208Z,90.05
2023-04-19T01:30:38.895Z,90.35
2023-04-19T01:32:43.025Z,90.85
2023-04-19T01:34:47.348Z,90.48
2023-04-19T01:36:51.752Z,90.43
2023-04-19T01:38:57.611Z,90.88
2023-04-19T01:41:01.892Z,90.71
2023-04-19T01:43:05.814Z,91.02
2023-04-19T01:45:11.948Z,90.55
2023-04-19T01:47:16.431Z,90.69
2023-04-19T01:49:20.548Z,90.95
2023-04-19T01:51:26.613Z,91.05
2023-04-19T01:53:31.639Z,91.84
2023-04-19T01:55:37.020Z,92.48
2023-04-19T01:57:41.149Z,92.82
2023-04-19T01:59:44.986Z,92.71
2023-04-19T02:01:49.935Z,93.08
2023-04-19T02:03:55.272Z,93.32
2023-04-19T02:05:59.842Z,93.41
2023-04-19T02:08:04.376Z,93.15
2023-04-19T02:10:11.833Z,93.12
2023-04-19T02:12:17.795Z,93.64
2023-04-19T02:14:22.052Z,93.52
2023-04-19T02:16:26.072Z,92.96
2023-04-19T02:18:30.980Z,93.23
2023-04-19T02:20:35.283Z,93.17
2023-04-19T02:22:39.214Z,93.85
2023-04-19T02:24:43.366Z,93.96
2023-04-19T02:26:47.436Z,94.94
2023-04-19T02:28:55.223Z,95.32
2023-04-19T02:30:59.918Z,96.19
2023-04-19T02:33:05.101Z,96.32
2023-04-19T02:35:11.729Z,96.67
2023-04-19T02:37:16.038Z,96.65
2023-04-19T02:39:20.262Z,96.07
2023-04-19T02:41:24.572Z,96.17
2023-04-19T02:43:28.644Z,96.00
2023-04-19T02:45:34.357Z,95.34
2023-04-19T02:47:38.376Z,95.18
2023-04-19T02:49:43.285Z,94.57
2023-04-19T02:51:47.968Z,94.31
2023-04-19T02:53:52.037Z,94.40
2023-04-19T02:55:56.734Z,94.75
2023-04-19T02:58:00.754Z,94.89
2023-04-19T03:00:05.889Z,95.11
2023-04-19T03:02:12.374Z,95.46
2023-04-19T03:04:17.480Z,95.55
2023-04-19T03:06:21.976Z,96.05
2023-04-19T03:08:26.282Z,96.11
2023-04-19T03:10:30.267Z,96.35
2023-04-19T03:12:34.504Z,96.52
2023-04-19T03:14:38.607Z,96.90
2023-04-19T03:16:44.507Z,97.14
2023-04-19T03:18:50.058Z,97.15
2023-04-19T03:20:57.866Z,97.13
2023-04-19T03:23:05.347Z,97.42
2023-04-19T03:25:12.753Z,97.42
2023-04-19T03:27:19.191Z,97.48
2023-04-19T03:29:28.235Z,97.22
2023-04-19T03:31:42.585Z,97.48
2023-04-19T03:33:51.139Z,97.47
2023-04-19T03:35:57.390Z,97.92
2023-04-19T03:38:02.118Z,97.01
2023-04-19T03:40:06.782Z,96.56
2023-04-19T03:42:11.536Z,96.91
2023-04-19T03:44:27.083Z,96.97
2023-04-19T03:46:32.040Z,96.66
2023-04-19T03:48:37.386Z,96.32
2023-04-19T03:50:43.181Z,96.35
2023-04-19T03:52:51.621Z,96.74
2023-04-19T03:54:55.669Z,97.35
2023-04-19T03:57:10.841Z,97.00
2023-04-19T03:59:16.904Z,96.91
2023-04-19T04:01:20.984Z,97.30
2023-04-19T04:03:26.241Z,97.29
2023-04-19T04:05:31.001Z,97.74
2023-04-19T04:07:36.394Z,97.51
2023-04-19T04:09:40.618Z,97.66
2023-04-19T04:11:44.871Z,97.81
2023-04-19T04:13:50.510Z,97.74
2023-04-19T04:15:58.796Z,98.16
2023-04-19T04:18:02.554Z,98.04
2023-04-19T04:20:07.896Z,98.10
2023-04-19T04:22:13.172Z,98.60
2023-04-19T04:24:20.430Z,98.67
2023-04-19T04:27:00.988Z,98.67
2023-04-19T04:29:07.397Z,98.72
2023-04-19T04:31:13.153Z,99.08
2023-04-19T04:33:18.210Z,99.20
2023-04-19T04:35:21.827Z,99.23
2023-04-19T04:37:34.662Z,99.41
2023-04-19T04:39:40.341Z,100.00
2023-04-19T04:41:46.493Z,100.00
2023-04-19T04:44:04.695Z,100.00
2023-04-19T04:46:16.106Z,100.00
2023-04-19T04:48:20.330Z,100.00
2023-04-19T04:50:24.553Z,100.00
2023-04-19T04:52:29.082Z,100.00
2023-04-19T04:54:57.733Z,100.00
2023-04-19T04:57:07.657Z,100.00
2023-04-19T04:59:11.906Z,100.00
2023-04-19T05:01:21.802Z,100.00
2023-04-19T05:03:27.247Z,100.00
2023-04-19T05:05:36.903Z,100.00
2023-04-19T05:07:41.397Z,100.00
2023-04-19T05:09:45.822Z,100.00
2023-04-19T05:11:56.025Z,100.00
2023-04-19T05:14:01.260Z,100.00
2023-04-19T05:16:05.721Z,99.88
2023-04-19T05:18:10.140Z,99.92
2023-04-19T05:20:15.040Z,100.00
2023-04-19T05:22:20.255Z,99.71
2023-04-19T05:24:24.722Z,98.48
2023-04-19T05:26:29.088Z,98.36
2023-04-19T05:28:34.873Z,98.11
2023-04-19T05:30:44.521Z,97.69
2023-04-19T05:32:49.374Z,97.78
2023-04-19T05:34:55.275Z,97.78
2023-04-19T05:37:00.280Z,97.95
2023-04-19T05:39:04.219Z,98.05
2023-04-19T05:41:08.450Z,98.36
2023-04-19T05:43:12.855Z,97.95
2023-04-19T05:45:19.625Z,98.77
2023-04-19T05:47:23.902Z,98.32
2023-04-19T05:49:45.469Z,98.80
2023-04-19T05:51:57.547Z,99.22
2023-04-19T05:54:24.532Z,99.44
2023-04-19T05:56:28.952Z,99.58
2023-04-19T05:58:33.482Z,99.73
2023-04-19T06:00:39.488Z,99.88
2023-04-19T06:02:48.648Z,99.65
2023-04-19T06:04:53.615Z,99.25
2023-04-19T06:06:57.796Z,99.15
2023-04-19T06:09:02.013Z,99.11
2023-04-19T06:11:15.697Z,99.39
2023-04-19T06:13:28.602Z,99.05
2023-04-19T06:15:33.334Z,98.18
2023-04-19T06:17:38.389Z,97.97
2023-04-19T06:19:42.749Z,97.54
2023-04-19T06:21:47.872Z,97.62
2023-04-19T06:23:51.658Z,98.03
2023-04-19T06:25:55.959Z,98.46
2023-04-19T06:27:59.972Z,98.44
2023-04-19T06:30:03.869Z,98.22
2023-04-19T06:32:07.671Z,98.39
2023-04-19T06:34:13.108Z,97.98
2023-04-19T06:36:17.411Z,98.23
2023-04-19T06:38:21.179Z,98.08
2023-04-19T06:40:25.166Z,98.45
2023-04-19T06:42:29.587Z,98.33
2023-04-19T06:44:34.313Z,97.97
2023-04-19T06:46:38.589Z,97.30
2023-04-19T06:48:43.567Z,98.03
2023-04-19T06:50:49.669Z,97.37
2023-04-19T06:52:54.239Z,97.36
2023-04-19T06:54:59.018Z,96.94
2023-04-19T06:57:04.052Z,96.77
2023-04-19T06:59:08.635Z,96.86
2023-04-19T07:01:13.527Z,97.27
2023-04-19T07:03:18.254Z,97.35
2023-04-19T07:05:23.082Z,96.90
2023-04-19T07:07:29.207Z,97.37
2023-04-19T07:09:33.574Z,96.85
2023-04-19T07:11:38.053Z,96.97
2023-04-19T07:13:42.894Z,97.01
2023-04-19T07:15:47.517Z,96.96
2023-04-19T07:17:52.467Z,97.32
2023-04-19T07:19:56.838Z,97.14
2023-04-19T07:22:01.357Z,97.20
2023-04-19T07:24:08.068Z,96.94
2023-04-19T07:26:12.401Z,96.35
2023-04-19T07:28:17.219Z,96.09
2023-04-19T07:30:21.621Z,96.20
2023-04-19T07:32:25.663Z,96.48
2023-04-19T07:34:30.192Z,96.61
2023-04-19T07:36:35.755Z,97.14
2023-04-19T07:38:40.064Z,96.91
2023-04-19T07:40:45.302Z,96.90
2023-04-19T07:42:49.471Z,96.69
2023-04-19T07:44:53.265Z,97.18
2023-04-19T07:46:57.399Z,97.34
2023-04-19T07:49:01.727Z,97.61
2023-04-19T07:51:11.289Z,97.20
2023-04-19T07:53:16.848Z,96.77
2023-04-19T07:55:21.156Z,96.34
2023-04-19T07:57:27.066Z,96.84
2023-04-19T07:59:33.524Z,97.07
2023-04-19T08:01:38.104Z,97.14
2023-04-19T08:03:43.143Z,96.50
2023-04-19T08:05:47.153Z,95.99
2023-04-19T08:07:53.776Z,97.22
2023-04-19T08:09:58.009Z,96.42
2023-04-19T08:12:02.927Z,96.78
2023-04-19T08:14:18.555Z,97.55
2023-04-19T08:18:38.133Z,97.16
2023-04-19T08:20:43.202Z,96.72
2023-04-19T08:22:46.904Z,96.94
2023-04-19T08:24:51.736Z,96.15
2023-04-19T08:26:58.801Z,97.30
2023-04-19T08:29:03.994Z,96.84
2023-04-19T08:31:09.452Z,97.72
2023-04-19T08:33:13.443Z,97.32
2023-04-19T08:35:17.370Z,97.58
2023-04-19T08:37:21.958Z,97.73
2023-04-19T08:39:33.030Z,97.09
2023-04-19T08:41:38.819Z,96.92
2023-04-19T08:43:45.613Z,96.74
2023-04-19T08:45:50.988Z,96.85
2023-04-19T08:48:01.787Z,97.19
2023-04-19T08:50:24.146Z,97.89
2023-04-19T08:52:47.961Z,97.15
2023-04-19T08:55:00.209Z,98.17
2023-04-19T08:57:04.894Z,98.54
2023-04-19T08:59:17.940Z,98.21
2023-04-19T09:01:34.998Z,97.83
2023-04-19T09:03:58.353Z,97.81
2023-04-19T09:06:05.872Z,98.00
2023-04-19T09:08:30.778Z,97.48
2023-04-19T09:10:34.800Z,97.48
2023-04-19T09:12:40.143Z,97.77
2023-04-19T09:15:00.312Z,98.32
2023-04-19T09:17:22.955Z,98.14
2023-04-19T09:19:28.924Z,98.13
2023-04-19T09:21:34.117Z,98.30
2023-04-19T09:23:47.980Z,98.04
2023-04-19T09:26:19.169Z,98.12
2023-04-19T09:28:21.106Z,97.34
2023-04-19T09:30:32.408Z,97.88
2023-04-19T09:32:49.667Z,98.42
2023-04-19T09:34:57.240Z,97.90
2023-04-19T09:37:27.617Z,98.07
2023-04-19T09:39:37.900Z,99.11
2023-04-19T09:41:52.313Z,98.46
2023-04-19T09:44:13.031Z,98.44
2023-04-19T09:46:34.425Z,98.55
2023-04-19T09:48:38.898Z,98.87
2023-04-19T09:51:02.392Z,98.64
2023-04-19T09:53:12.238Z,98.35
2023-04-19T09:55:26.813Z,99.29
2023-04-19T09:57:33.552Z,98.38
2023-04-19T09:59:37.482Z,97.97
2023-04-19T10:01:44.151Z,98.76
2023-04-19T10:03:52.393Z,98.64
2023-04-19T10:06:06.775Z,99.00
2023-04-19T10:08:14.485Z,99.01
2023-04-19T10:10:21.517Z,99.99
2023-04-19T10:12:46.302Z,100.00
2023-04-19T10:14:52.926Z,100.00
2023-04-19T10:16:58.499Z,100.00
2023-04-19T10:19:05.126Z,100.00
2023-04-19T10:21:12.481Z,100.00
2023-04-19T10:23:16.500Z,100.00
2023-04-19T10:25:21.841Z,100.00
2023-04-19T10:27:27.716Z,99.91
2023-04-19T10:29:59.008Z,99.66
2023-04-19T10:32:06.583Z,99.83
2023-04-19T10:34:10.550Z,99.75
2023-04-19T10:36:18.267Z,99.88
2023-04-19T10:38:22.149Z,100.00
2023-04-19T10:40:56.785Z,100.00
2023-04-19T10:43:17.255Z,99.19
2023-04-19T10:45:36.612Z,99.55
2023-04-19T10:47:43.798Z,99.32
2023-04-19T10:49:47.995Z,98.75
2023-04-19T10:51:55.170Z,99.37
2023-04-19T10:54:00.562Z,99.70
2023-04-19T10:56:04.814Z,100.00
2023-04-19T10:58:09.291Z,100.00
2023-04-19T11:00:22.787Z,99.83
2023-04-19T11:02:31.388Z,100.00
2023-04-19T11:05:14.227Z,99.92
2023-04-19T11:07:21.540Z,100.00
2023-04-19T11:09:26.579Z,100.00
2023-04-19T11:11:30.840Z,100.00
2023-04-19T11:13:37.949Z,100.00
2023-04-19T11:15:45.056Z,100.00
2023-04-19T11:18:00.837Z,100.00
2023-04-19T11:20:11.660Z,100.00
2023-04-19T11:22:15.624Z,100.00
2023-04-19T11:24:21.438Z,100.00
2023-04-19T11:26:25.601Z,100.00
2023-04-19T11:28:29.733Z,100.00
2023-04-19T11:30:34.238Z,100.00
2023-04-19T11:32:39.387Z,100.00
2023-04-19T11:34:43.655Z,100.00
2023-04-19T11:36:52.130Z,100.00
2023-04-19T11:38:56.728Z,100.00
2023-04-19T11:41:02.886Z,100.00
2023-04-19T11:43:07.417Z,100.00
2023-04-19T11:45:25.837Z,100.00
2023-04-19T11:47:34.298Z,99.85
2023-04-19T11:49:37.838Z,100.00
2023-04-19T11:51:44.991Z,100.00
2023-04-19T11:53:49.300Z,100.00
2023-04-19T11:55:54.572Z,100.00
2023-04-19T11:58:00.540Z,100.00
2023-04-19T12:00:11.208Z,100.00
2023-04-19T12:02:20.133Z,100.00
2023-04-19T12:04:24.643Z,100.00
2023-04-19T12:06:32.334Z,100.00
2023-04-19T12:08:37.865Z,100.00
2023-04-19T12:10:56.751Z,100.00
2023-04-19T12:13:02.200Z,100.00
2023-04-19T12:15:07.019Z,100.00
2023-04-19T12:17:16.337Z,100.00
2023-04-19T12:19:20.993Z,100.00
2023-04-19T12:21:28.971Z,100.00
2023-04-19T12:23:33.157Z,99.77
2023-04-19T12:25:37.390Z,99.67
2023-04-19T12:27:42.726Z,99.29
2023-04-19T12:29:48.070Z,98.90
2023-04-19T12:31:51.941Z,99.57
2023-04-19T12:33:56.098Z,97.27
2023-04-19T12:36:00.219Z,96.24
2023-04-19T12:38:04.302Z,96.78
2023-04-19T12:40:09.750Z,97.15
2023-04-19T12:42:13.736Z,97.38
2023-04-19T12:44:17.719Z,96.62
2023-04-19T12:46:23.081Z,96.11
2023-04-19T12:48:27.868Z,95.40
2023-04-19T12:50:31.749Z,95.55
2023-04-19T12:52:36.542Z,94.12
2023-04-19T12:54:40.363Z,94.12
2023-04-19T12:56:44.366Z,93.40
2023-04-19T12:58:48.318Z,93.12
2023-04-19T13:00:53.078Z,93.68
2023-04-19T13:02:59.108Z,94.39
2023-04-19T13:05:03.169Z,94.02
2023-04-19T13:07:07.195Z,93.45
2023-04-19T13:09:15.048Z,93.47
2023-04-19T13:11:23.601Z,94.12
2023-04-19T13:13:27.884Z,93.49
2023-04-19T13:15:31.851Z,94.50
2023-04-19T13:17:37.984Z,94.40
2023-04-19T13:19:43.751Z,94.69
2023-04-19T13:21:47.583Z,94.30
2023-04-19T13:23:52.295Z,94.14
2023-04-19T13:25:56.117Z,93.89
2023-04-19T13:27:59.737Z,94.19
2023-04-19T13:30:03.746Z,95.09
2023-04-19T13:32:12.495Z,94.92
2023-04-19T13:34:16.617Z,94.27
2023-04-19T13:36:22.907Z,94.76
2023-04-19T13:38:27.294Z,94.39
2023-04-19T13:40:35.730Z,94.53
2023-04-19T13:42:39.711Z,95.09
2023-04-19T13:44:44.930Z,95.26
2023-04-19T13:46:49.841Z,95.83
2023-04-19T13:48:54.460Z,96.37
2023-04-19T13:50:59.618Z,95.44
2023-04-19T13:53:04.996Z,94.90
2023-04-19T13:55:10.278Z,95.23
2023-04-19T13:57:14.539Z,94.23
2023-04-19T13:59:18.725Z,95.07
2023-04-19T14:01:23.537Z,94.29
2023-04-19T14:03:28.457Z,94.47
2023-04-19T14:05:34.112Z,94.43
2023-04-19T14:07:40.750Z,94.61
2023-04-19T14:09:46.668Z,94.64
2023-04-19T14:11:51.073Z,94.99
2023-04-19T14:13:55.718Z,94.97
2023-04-19T14:16:00.633Z,95.40
2023-04-19T14:18:05.680Z,95.49
2023-04-19T14:20:10.464Z,95.58
2023-04-19T14:22:14.787Z,96.05
2023-04-19T14:24:19.219Z,95.54
2023-04-19T14:26:26.979Z,96.19
2023-04-19T14:28:32.141Z,95.45
2023-04-19T14:30:36.394Z,95.53
2023-04-19T14:32:40.654Z,95.39
2023-04-19T14:34:44.898Z,95.54
2023-04-19T14:36:51.541Z,95.48
2023-04-19T14:38:55.518Z,95.99
2023-04-19T14:40:59.826Z,96.28
2023-04-19T14:43:05.873Z,96.12
2023-04-19T14:45:11.093Z,96.31
2023-04-19T14:47:16.265Z,96.36
2023-04-19T14:49:20.649Z,95.98
2023-04-19T14:51:25.222Z,95.18
2023-04-19T14:53:29.365Z,95.12
2023-04-19T14:55:33.778Z,95.64
2023-04-19T14:57:38.132Z,95.87
2023-04-19T14:59:44.270Z,96.06
2023-04-19T15:01:48.457Z,95.98
2023-04-19T15:03:53.325Z,96.19
2023-04-19T15:05:58.066Z,96.30
2023-04-19T15:08:02.081Z,96.74
2023-04-19T15:10:07.034Z,96.75
2023-04-19T15:12:10.644Z,96.01
2023-04-19T15:14:15.145Z,95.98
2023-04-19T15:16:20.830Z,95.91
2023-04-19T15:18:24.678Z,96.55
2023-04-19T15:20:29.735Z,96.74
2023-04-19T15:22:35.235Z,96.60
2023-04-19T15:24:39.889Z,96.71
2023-04-19T15:26:45.118Z,97.01
2023-04-19T15:28:49.575Z,96.97
2023-04-19T15:31:00.803Z,97.16
2023-04-19T15:33:06.304Z,96.52
2023-04-19T15:35:11.379Z,96.47
2023-04-19T15:37:15.222Z,96.73
2023-04-19T15:39:19.389Z,97.17
2023-04-19T15:41:23.435Z,97.02
2023-04-19T15:43:27.492Z,97.76
2023-04-19T15:45:31.830Z,97.84
2023-04-19T15:47:35.993Z,97.77
2023-04-19T15:49:42.215Z,97.68
2023-04-19T15:51:46.528Z,97.41
2023-04-19T15:53:50.831Z,96.88
2023-04-19T15:55:56.211Z,96.54
2023-04-19T15:58:01.211Z,96.47
2023-04-19T16:00:09.516Z,96.16
2023-04-19T16:02:16.164Z,95.94
2023-04-19T16:04:20.650Z,95.33
2023-04-19T16:06:27.606Z,95.48
2023-04-19T16:08:31.917Z,95.50
2023-04-19T16:10:36.688Z,95.53
2023-04-19T16:12:40.996Z,95.07
2023-04-19T16:14:44.972Z,95.49
2023-04-19T16:16:49.477Z,95.44
2023-04-19T16:18:53.411Z,95.39
2023-04-19T16:20:57.618Z,95.08
2023-04-19T16:23:03.686Z,95.16
2023-04-19T16:25:10.314Z,95.53
2023-04-19T16:27:14.500Z,95.50
2023-04-19T16:29:19.054Z,95.36
2023-04-19T16:31:23.616Z,95.19
2023-04-19T16:33:27.850Z,95.73
2023-04-19T16:35:31.878Z,95.61
2023-04-19T16:37:37.152Z,96.16
2023-04-19T16:39:43.130Z,96.46
2023-04-19T16:41:47.537Z,96.89
2023-04-19T16:43:52.688Z,96.69
2023-04-19T16:46:00.418Z,96.97
2023-04-19T16:48:04.724Z,97.13
2023-04-19T16:50:09.380Z,96.96
2023-04-19T16:52:13.511Z,96.83
2023-04-19T16:54:17.647Z,97.19
2023-04-19T16:56:23.255Z,97.78
2023-04-19T16:58:27.278Z,98.09
2023-04-19T17:00:31.592Z,98.08
2023-04-19T17:02:35.792Z,98.42
2023-04-19T17:04:40.561Z,99.19
2023-04-19T17:06:45.137Z,99.17
2023-04-19T17:08:49.274Z,99.40
2023-04-19T17:10:53.194Z,99.58
2023-04-19T17:12:58.794Z,99.42
2023-04-19T17:15:03.023Z,99.80
2023-04-19T17:17:07.052Z,99.58
2023-04-19T17:19:10.822Z,99.24
2023-04-19T17:21:16.646Z,99.17
2023-04-19T17:23:20.677Z,99.15
2023-04-19T17:25:24.584Z,99.12
2023-04-19T17:27:28.900Z,98.99
2023-04-19T17:29:34.356Z,98.65
2023-04-19T17:31:39.429Z,98.65
2023-04-19T17:33:43.679Z,98.93
2023-04-19T17:35:47.299Z,99.11
2023-04-19T17:37:51.569Z,98.46
2023-04-19T17:39:55.588Z,98.35
2023-04-19T17:41:59.556Z,98.12
2023-04-19T17:44:03.433Z,97.56
2023-04-19T17:46:08.693Z,97.86
2023-04-19T17:48:12.914Z,97.95
2023-04-19T17:50:17.566Z,97.96
2023-04-19T17:52:21.401Z,97.72
2023-04-19T17:54:25.717Z,98.16
2023-04-19T17:56:30.627Z,97.74
2023-04-19T17:58:36.413Z,97.01
2023-04-19T18:00:41.331Z,96.63
2023-04-19T18:02:47.884Z,96.42
2023-04-19T18:04:53.181Z,95.43
2023-04-19T18:06:57.387Z,95.96
2023-04-19T18:09:01.495Z,95.73
2023-04-19T18:11:06.038Z,95.76
2023-04-19T18:13:10.925Z,95.68
2023-04-19T18:15:15.548Z,96.24
2023-04-19T18:17:20.175Z,96.26
2023-04-19T18:19:26.544Z,96.83
2023-04-19T18:21:31.575Z,96.32
2023-04-19T18:23:35.785Z,96.71
2023-04-19T18:25:40.772Z,96.55
2023-04-19T18:27:46.124Z,96.66
2023-04-19T18:29:53.105Z,96.60
2023-04-19T18:31:56.966Z,96.70
2023-04-19T18:34:01.716Z,96.73
2023-04-19T18:36:07.935Z,97.18
2023-04-19T18:38:12.821Z,97.04
2023-04-19T18:40:18.242Z,97.23
2023-04-19T18:42:23.685Z,96.98
2023-04-19T18:44:49.435Z,97.29
2023-04-19T18:46:55.717Z,97.56
2023-04-19T18:49:00.113Z,97.84
2023-04-19T18:51:04.891Z,97.83
2023-04-19T18:53:11.201Z,97.98
2023-04-19T18:55:16.449Z,97.46
2023-04-19T18:57:23.406Z,97.63
2023-04-19T18:59:30.883Z,97.58
2023-04-19T19:01:37.087Z,96.83
2023-04-19T19:04:07.753Z,96.89
2023-04-19T19:06:06.966Z,96.76
2023-04-19T19:08:12.953Z,96.59
2023-04-19T19:10:20.860Z,96.52
2023-04-19T19:12:27.214Z,96.73
2023-04-19T19:14:35.899Z,96.46
2023-04-19T19:16:51.275Z,96.47
2023-04-19T19:18:58.086Z,96.37
2023-04-19T19:21:03.582Z,96.50
2023-04-19T19:23:08.800Z,96.08
2023-04-19T19:25:16.409Z,95.48
2023-04-19T19:27:21.186Z,95.61
2023-04-19T19:29:26.462Z,94.15
2023-04-19T19:31:31.774Z,92.13
2023-04-19T19:33:39.953Z,91.23
2023-04-19T19:38:11.607Z,89.77
2023-04-19T19:40:20.919Z,88.28
2023-04-19T19:42:28.315Z,86.29
2023-04-19T19:44:33.195Z,85.05
2023-04-19T19:46:38.605Z,83.85
2023-04-19T19:48:44.644Z,83.00
2023-04-19T19:51:10.808Z,82.37
2023-04-19T19:53:18.375Z,81.02
2023-04-19T19:55:26.674Z,79.69
2023-04-19T19:59:40.530Z,79.39
2023-04-19T20:01:44.978Z,78.80
2023-04-19T20:03:50.846Z,78.17
2023-04-19T20:05:57.470Z,78.01
2023-04-19T20:08:10.433Z,78.70
2023-04-19T20:10:15.926Z,79.55
2023-04-19T20:12:21.889Z,79.71
2023-04-19T20:14:27.140Z,79.94
2023-04-19T20:16:32.557Z,80.45
2023-04-19T20:18:38.179Z,80.86
2023-04-19T20:20:43.930Z,81.17
2023-04-19T20:22:48.951Z,81.37
2023-04-19T20:24:53.290Z,81.38
2023-04-19T20:26:57.642Z,81.26
2023-04-19T20:29:03.371Z,81.17
2023-04-19T20:31:08.265Z,81.27
2023-04-19T20:33:14.240Z,80.85
2023-04-19T20:35:18.467Z,81.08
2023-04-19T20:37:24.611Z,81.45
2023-04-19T20:39:29.532Z,81.23
2023-04-19T20:41:35.058Z,81.73
2023-04-19T20:43:39.759Z,81.46
2023-04-19T20:45:45.420Z,81.29
2023-04-19T20:47:49.154Z,81.72
2023-04-19T20:49:54.079Z,81.76
2023-04-19T20:51:58.567Z,81.85
2023-04-19T20:54:07.548Z,81.53
2023-04-19T20:56:13.726Z,81.34
2023-04-19T20:58:19.952Z,81.28
2023-04-19T21:00:25.238Z,81.71
2023-04-19T21:02:31.734Z,81.50
2023-04-19T21:04:36.915Z,81.49
2023-04-19T21:06:40.924Z,82.25
2023-04-19T21:08:46.389Z,82.23
2023-04-19T21:10:52.443Z,82.58
2023-04-19T21:12:57.680Z,82.30
2023-04-19T21:15:05.221Z,82.42
2023-04-19T21:17:10.234Z,82.84
2023-04-19T21:19:15.852Z,82.54
2023-04-19T21:21:20.784Z,82.43
2023-04-19T21:23:25.516Z,82.36
2023-04-19T21:25:29.983Z,81.90
2023-04-19T21:27:35.153Z,82.08
2023-04-19T21:29:40.035Z,81.87
2023-04-19T21:31:44.379Z,81.88
2023-04-19T21:33:49.173Z,82.06
2023-04-19T21:35:55.366Z,81.50
2023-04-19T21:38:00.130Z,81.64
2023-04-19T21:40:04.457Z,81.68
2023-04-19T21:42:08.886Z,81.55
2023-04-19T21:44:13.597Z,80.24
2023-04-19T21:46:18.298Z,80.70
2023-04-19T21:48:22.988Z,80.11
2023-04-19T21:50:27.573Z,80.24
2023-04-19T21:52:33.380Z,79.86
2023-04-19T21:54:37.790Z,79.38
2023-04-19T21:56:41.898Z,79.65
2023-04-19T21:58:46.637Z,78.31
2023-04-19T22:00:55.500Z,78.36
2023-04-19T22:03:00.093Z,78.04
2023-04-19T22:05:04.572Z,78.20
2023-04-19T22:07:11.664Z,77.97
2023-04-19T22:09:17.574Z,78.20
2023-04-19T22:11:22.027Z,77.72
2023-04-19T22:13:26.440Z,76.60
2023-04-19T22:15:31.838Z,76.43
2023-04-19T22:17:37.318Z,75.11
2023-04-19T22:19:42.644Z,74.79
2023-04-19T22:21:47.811Z,74.01
2023-04-19T22:23:52.790Z,74.35
2023-04-19T22:25:58.476Z,73.82
2023-04-19T22:28:03.582Z,73.75
2023-04-19T22:30:10.196Z,73.70
2023-04-19T22:32:15.060Z,73.78
2023-04-19T22:34:19.222Z,74.13
2023-04-19T22:36:23.638Z,73.58
2023-04-19T22:38:28.432Z,72.71
2023-04-19T22:40:32.725Z,72.97
2023-04-19T22:42:39.336Z,72.41
2023-04-19T22:44:43.667Z,73.31
2023-04-19T22:46:48.994Z,72.62
2023-04-19T22:48:53.491Z,73.24
2023-04-19T22:50:58.998Z,73.10
2023-04-19T22:53:03.813Z,73.46
2023-04-19T22:55:09.096Z,73.32
2023-04-19T22:57:14.287Z,74.17
2023-04-19T22:59:21.304Z,74.21
2023-04-19T23:01:25.971Z,74.18
2023-04-19T23:03:30.544Z,74.67
2023-04-19T23:05:35.567Z,75.11
2023-04-19T23:07:40.516Z,75.75
2023-04-19T23:09:45.224Z,75.53
2023-04-19T23:11:50.193Z,75.63
2023-04-19T23:13:55.204Z,76.44
2023-04-19T23:16:01.473Z,76.52
2023-04-19T23:18:07.259Z,76.62
2023-04-19T23:20:13.049Z,76.17
2023-04-19T23:22:18.031Z,76.42
2023-04-19T23:24:22.280Z,77.24
2023-04-19T23:26:26.988Z,76.42
2023-04-19T23:28:31.330Z,77.14
2023-04-19T23:30:36.339Z,76.49
2023-04-19T23:32:42.232Z,76.12
2023-04-19T23:34:46.771Z,75.36
2023-04-19T23:36:51.372Z,75.70
2023-04-19T23:39:01.719Z,75.10
2023-04-19T23:41:06.515Z,74.04
2023-04-19T23:43:11.401Z,74.14
2023-04-19T23:45:16.484Z,73.90
2023-04-19T23:47:20.664Z,74.23
2023-04-19T23:49:26.745Z,74.32
2023-04-19T23:51:31.676Z,74.55
2023-04-19T23:53:36.200Z,74.61
2023-04-19T23:55:40.921Z,74.64
2023-04-19T23:57:45.954Z,74.82
2023-04-19T23:59:50.806Z,74.33
